LGMT

Details ICAO LGMT (MJT)
Name Mitilini
Region Greece
Timezone Europe/Athens (UTC+2.0)
Plans Departing 37
Arriving 47
Stats Elevation 60 ft / 18 m (AMSL)
Location 39.065833° 26.591943°
Runways 1
Magnetic Variation 4.922° E
Sunrise 2017-12-14 05:26:13 UTC / 2017-12-14 07:26:13 Local
Sunset 2017-12-14 14:53:08 UTC / 2017-12-14 16:53:08 Local
Advertisement - Login to hide

Runways

ID Width Length Bearing (true) Bearing (mag) Surface Threshold Offset Overrun Length
14 148 ft / 45 m 7,899 ft / 2,408 m 147.79° 142.87° Asphalt 269 ft / 82 m 200 ft / 61 m
32 148 ft / 45 m 7,899 ft / 2,408 m 327.80° 322.88° Asphalt 1,755 ft / 535 m 165 ft / 50 m

Map

Weather


0- 5 10 15 20 25 30 35+ Temperature / ° C

Clouds and Precipitation
Forecast for 2017-12-14 06:00 UTC. Updated an hour ago

Ground ~20,000 ft ~40,000 ft Winds

METAR

LGMT 140620Z 16010KT 130V210 9999 SCT018 15/13 Q1017

TAF

Not found

Frequencies

Tower 123.85 MHz TWR
Approach 123.85 MHz APP
Warning: Do not use this data for real-world aviation or navigation. No guarantee of current accuracy is given.